createdAt,value
2022-08-21T00:00:17.003Z,100604.75
2022-08-21T00:03:08.108Z,100608.41
2022-08-21T00:05:39.187Z,100606.31
2022-08-21T00:08:06.216Z,100603.91
2022-08-21T00:10:33.467Z,100607.63
2022-08-21T00:13:01.783Z,100607.16
2022-08-21T00:15:31.629Z,100607.94
2022-08-21T00:17:59.885Z,100603.75
2022-08-21T00:20:27.291Z,100608.25
2022-08-21T00:22:54.222Z,100599.22
2022-08-21T00:25:24.342Z,100603.13
2022-08-21T00:27:53.629Z,100604.22
2022-08-21T00:30:23.466Z,100592.28
2022-08-21T00:32:52.031Z,100596.03
2022-08-21T00:35:22.795Z,100592.63
2022-08-21T00:37:49.712Z,100598.31
2022-08-21T00:40:20.180Z,100594.75
2022-08-21T00:42:50.092Z,100598.31
2022-08-21T00:45:22.453Z,100604.91
2022-08-21T00:47:50.826Z,100594.25
2022-08-21T00:50:21.933Z,100591.50
2022-08-21T00:52:52.089Z,100601.03
2022-08-21T00:55:21.833Z,100603.94
2022-08-21T00:57:53.045Z,100594.22
2022-08-21T01:00:29.313Z,100599.72
2022-08-21T01:03:01.064Z,100604.53
2022-08-21T01:05:28.981Z,100608.38
2022-08-21T01:07:58.037Z,100598.19
2022-08-21T01:10:25.489Z,100599.16
2022-08-21T01:12:56.128Z,100609.47
2022-08-21T01:15:25.470Z,100598.34
2022-08-21T01:17:52.306Z,100603.19
2022-08-21T01:20:19.065Z,100604.81
2022-08-21T01:22:46.036Z,100601.09
2022-08-21T01:25:16.034Z,100599.31
2022-08-21T01:27:43.478Z,100589.81
2022-08-21T01:30:15.699Z,100603.00
2022-08-21T01:32:42.949Z,100599.97
2022-08-21T01:35:12.834Z,100600.28
2022-08-21T01:37:40.309Z,100596.56
2022-08-21T01:40:09.053Z,100593.78
2022-08-21T01:42:36.364Z,100593.16
2022-08-21T01:45:04.642Z,100598.00
2022-08-21T01:47:31.510Z,100596.91
2022-08-21T01:49:58.225Z,100597.88
2022-08-21T01:52:25.000Z,100597.22
2022-08-21T01:54:55.719Z,100595.94
2022-08-21T01:57:26.366Z,100597.41
2022-08-21T01:59:53.637Z,100597.53
2022-08-21T02:02:20.379Z,100586.72
2022-08-21T02:04:47.131Z,100586.56
2022-08-21T02:07:13.945Z,100585.22
2022-08-21T02:09:43.040Z,100589.69
2022-08-21T02:12:12.097Z,100589.88
2022-08-21T02:14:39.177Z,100587.94
2022-08-21T02:17:09.270Z,100588.56
2022-08-21T02:19:40.241Z,100576.31
2022-08-21T02:22:11.202Z,100581.28
2022-08-21T02:24:54.677Z,100576.13
2022-08-21T02:27:27.233Z,100572.88
2022-08-21T02:29:56.816Z,100572.09
2022-08-21T02:32:23.558Z,100573.16
2022-08-21T02:34:50.759Z,100574.63
2022-08-21T02:37:18.073Z,100574.44
2022-08-21T02:39:44.829Z,100577.19
2022-08-21T02:42:11.677Z,100567.69
2022-08-21T02:44:38.395Z,100558.69
2022-08-21T02:47:05.372Z,100571.53
2022-08-21T02:49:32.022Z,100567.28
2022-08-21T02:51:58.728Z,100569.00
2022-08-21T02:54:25.662Z,100572.63
2022-08-21T02:56:52.429Z,100577.47
2022-08-21T02:59:19.134Z,100570.38
2022-08-21T03:01:45.903Z,100570.03
2022-08-21T03:04:12.607Z,100573.56
2022-08-21T03:06:39.390Z,100566.34
2022-08-21T03:09:06.166Z,100561.50
2022-08-21T03:11:34.291Z,100556.38
2022-08-21T03:14:01.119Z,100562.94
2022-08-21T03:16:30.924Z,100557.28
2022-08-21T03:19:00.634Z,100557.16
2022-08-21T03:21:27.359Z,100555.66
2022-08-21T03:23:55.101Z,100565.75
2022-08-21T03:26:22.293Z,100573.97
2022-08-21T03:28:49.795Z,100570.34
2022-08-21T03:31:16.906Z,100565.38
2022-08-21T03:33:43.631Z,100571.03
2022-08-21T03:36:11.332Z,100568.19
2022-08-21T03:38:38.765Z,100569.94
2022-08-21T03:41:06.451Z,100575.41
2022-08-21T03:43:35.788Z,100575.41
2022-08-21T03:46:04.454Z,100577.84
2022-08-21T03:48:31.679Z,100577.84
2022-08-21T03:50:58.657Z,100569.34
2022-08-21T03:53:26.107Z,100574.69
2022-08-21T03:55:53.673Z,100577.25
2022-08-21T03:58:24.402Z,100574.91
2022-08-21T04:00:53.789Z,100581.34
2022-08-21T04:03:21.045Z,100579.56
2022-08-21T04:05:47.804Z,100581.97
2022-08-21T04:08:18.913Z,100588.00
2022-08-21T04:10:54.845Z,100586.16
2022-08-21T04:13:22.080Z,100590.81
2022-08-21T04:15:49.314Z,100591.72
2022-08-21T04:18:16.603Z,100592.75
2022-08-21T04:20:50.131Z,100600.69
2022-08-21T04:23:23.554Z,100598.22
2022-08-21T04:25:53.151Z,100599.81
2022-08-21T04:28:20.617Z,100607.63
2022-08-21T04:30:47.923Z,100605.09
2022-08-21T04:33:14.644Z,100607.53
2022-08-21T04:35:42.971Z,100603.59
2022-08-21T04:38:10.177Z,100606.84
2022-08-21T04:40:37.501Z,100610.00
2022-08-21T04:43:10.263Z,100614.34
2022-08-21T04:45:43.006Z,100623.50
2022-08-21T04:48:14.198Z,100621.78
2022-08-21T04:50:50.611Z,100624.63
2022-08-21T04:53:29.376Z,100624.84
2022-08-21T04:55:58.655Z,100624.59
2022-08-21T04:58:27.892Z,100620.78
2022-08-21T05:00:58.807Z,100620.69
2022-08-21T05:03:25.812Z,100618.13
2022-08-21T05:05:52.830Z,100614.28
2022-08-21T05:08:22.389Z,100622.91
2022-08-21T05:10:49.147Z,100620.38
2022-08-21T05:13:16.932Z,100626.50
2022-08-21T05:15:43.617Z,100629.81
2022-08-21T05:18:10.450Z,100629.03
2022-08-21T05:20:38.295Z,100634.31
2022-08-21T05:23:10.801Z,100634.97
2022-08-21T05:25:37.627Z,100632.78
2022-08-21T05:28:05.498Z,100641.84
2022-08-21T05:30:33.902Z,100643.97
2022-08-21T05:33:02.651Z,100637.94
2022-08-21T05:35:30.072Z,100649.75
2022-08-21T05:37:57.712Z,100645.34
2022-08-21T05:40:24.791Z,100644.75
2022-08-21T05:42:54.984Z,100645.25
2022-08-21T05:45:34.655Z,100647.03
2022-08-21T05:48:23.754Z,100642.47
2022-08-21T05:50:52.724Z,100647.81
2022-08-21T05:53:21.663Z,100633.63
2022-08-21T05:55:48.808Z,100639.47
2022-08-21T05:58:18.284Z,100643.19
2022-08-21T06:00:48.114Z,100636.69
2022-08-21T06:03:30.244Z,100642.31
2022-08-21T06:05:57.384Z,100645.69
2022-08-21T06:08:25.594Z,100642.09
2022-08-21T06:10:53.974Z,100645.50
2022-08-21T06:13:21.826Z,100640.94
2022-08-21T06:15:48.854Z,100646.22
2022-08-21T06:18:15.935Z,100641.44
2022-08-21T06:20:42.835Z,100647.38
2022-08-21T06:23:10.259Z,100647.75
2022-08-21T06:25:37.088Z,100648.78
2022-08-21T06:28:11.727Z,100646.56
2022-08-21T06:30:40.094Z,100647.88
2022-08-21T06:33:08.508Z,100649.50
2022-08-21T06:35:36.110Z,100647.16
2022-08-21T06:38:03.268Z,100654.69
2022-08-21T06:40:31.049Z,100647.47
2022-08-21T06:43:11.734Z,100651.91
2022-08-21T06:45:42.576Z,100650.88
2022-08-21T06:48:09.878Z,100651.41
2022-08-21T06:50:37.325Z,100653.69
2022-08-21T06:53:07.877Z,100657.84
2022-08-21T06:55:34.805Z,100662.38
2022-08-21T06:58:01.778Z,100657.50
2022-08-21T07:00:28.953Z,100654.66
2022-08-21T07:02:55.827Z,100659.00
2022-08-21T07:05:22.741Z,100657.28
2022-08-21T07:07:49.385Z,100654.72
2022-08-21T07:10:22.189Z,100643.72
2022-08-21T07:12:59.116Z,100651.19
2022-08-21T07:15:28.716Z,100643.78
2022-08-21T07:17:58.038Z,100644.59
2022-08-21T07:20:24.807Z,100640.41
2022-08-21T07:22:51.908Z,100644.44
2022-08-21T07:25:18.839Z,100636.38
2022-08-21T07:27:45.491Z,100635.91
2022-08-21T07:30:12.361Z,100633.28
2022-08-21T07:32:39.103Z,100637.78
2022-08-21T07:35:06.077Z,100636.34
2022-08-21T07:37:32.748Z,100637.31
2022-08-21T07:39:59.476Z,100631.81
2022-08-21T07:42:26.157Z,100633.56
2022-08-21T07:44:56.369Z,100632.03
2022-08-21T07:47:40.501Z,100635.13
2022-08-21T07:50:12.190Z,100628.28
2022-08-21T07:52:40.182Z,100635.53
2022-08-21T07:55:08.746Z,100628.81
2022-08-21T07:57:35.482Z,100627.56
2022-08-21T08:00:04.339Z,100633.06
2022-08-21T08:02:40.197Z,100632.38
2022-08-21T08:05:12.002Z,100646.03
2022-08-21T08:07:39.545Z,100641.13
2022-08-21T08:10:07.951Z,100637.84
2022-08-21T08:12:40.447Z,100644.00
2022-08-21T08:15:13.092Z,100637.84
2022-08-21T08:17:39.795Z,100642.66
2022-08-21T08:20:09.021Z,100634.94
2022-08-21T08:22:38.559Z,100634.50
2022-08-21T08:25:09.405Z,100627.50
2022-08-21T08:27:38.736Z,100624.31
2022-08-21T08:30:07.098Z,100626.97
2022-08-21T08:32:34.329Z,100622.28
2022-08-21T08:35:01.134Z,100618.13
2022-08-21T08:37:29.480Z,100613.44
2022-08-21T08:40:04.602Z,100612.66
2022-08-21T08:42:35.431Z,100603.16
2022-08-21T08:45:16.868Z,100603.16
2022-08-21T08:47:48.664Z,100605.44
2022-08-21T08:50:28.890Z,100600.97
2022-08-21T08:53:04.315Z,100604.28
2022-08-21T08:55:40.275Z,100587.59
2022-08-21T08:58:08.009Z,100590.59
2022-08-21T09:00:34.909Z,100589.28
2022-08-21T09:03:03.849Z,100586.78
2022-08-21T09:05:39.263Z,100576.97
2022-08-21T09:08:19.062Z,100579.63
2022-08-21T09:11:04.033Z,100574.75
2022-08-21T09:14:09.188Z,100580.84
2022-08-21T09:16:51.168Z,100575.66
2022-08-21T09:19:34.138Z,100569.50
2022-08-21T09:22:29.482Z,100575.47
2022-08-21T09:25:11.914Z,100568.22
2022-08-21T09:27:39.241Z,100567.22
2022-08-21T09:30:08.983Z,100562.03
2022-08-21T09:32:38.643Z,100568.19
2022-08-21T09:35:10.748Z,100566.09
2022-08-21T09:38:03.873Z,100566.91
2022-08-21T09:40:36.694Z,100566.59
2022-08-21T09:43:05.716Z,100564.75
2022-08-21T09:45:33.834Z,100566.59
2022-08-21T09:48:22.348Z,100559.78
2022-08-21T09:50:54.751Z,100563.31
2022-08-21T09:53:33.725Z,100564.91
2022-08-21T09:56:35.607Z,100557.63
2022-08-21T09:59:02.333Z,100563.50
2022-08-21T10:01:29.232Z,100572.31
2022-08-21T10:04:09.009Z,100565.56
2022-08-21T10:06:36.561Z,100566.25
2022-08-21T10:09:15.098Z,100555.22
2022-08-21T10:11:57.557Z,100557.66
2022-08-21T10:14:42.109Z,100562.09
2022-08-21T10:17:22.022Z,100559.13
2022-08-21T10:20:12.950Z,100546.16
2022-08-21T10:23:06.969Z,100544.78
2022-08-21T10:25:33.583Z,100544.19
2022-08-21T10:28:13.923Z,100538.09
2022-08-21T10:31:16.778Z,100536.59
2022-08-21T10:33:52.069Z,100535.69
2022-08-21T10:36:37.891Z,100532.16
2022-08-21T10:39:34.997Z,100536.25
2022-08-21T10:42:28.439Z,100529.84
2022-08-21T10:45:14.363Z,100527.44
2022-08-21T10:47:57.323Z,100528.47
2022-08-21T10:50:35.003Z,100523.88
2022-08-21T10:53:27.315Z,100522.72
2022-08-21T10:55:53.934Z,100522.97
2022-08-21T10:58:29.330Z,100526.88
2022-08-21T11:01:14.065Z,100515.50
2022-08-21T11:03:45.453Z,100512.41
2022-08-21T11:06:17.573Z,100518.78
2022-08-21T11:08:47.935Z,100511.50
2022-08-21T11:11:28.120Z,100509.41
2022-08-21T11:14:32.629Z,100499.63
2022-08-21T11:17:08.179Z,100499.28
2022-08-21T11:19:48.291Z,100505.94
2022-08-21T11:22:38.953Z,100501.38
2022-08-21T11:25:19.687Z,100495.25
2022-08-21T11:27:52.761Z,100500.06
2022-08-21T11:30:19.696Z,100496.28
2022-08-21T11:33:06.485Z,100491.59
2022-08-21T11:35:48.237Z,100479.97
2022-08-21T11:38:28.818Z,100482.72
2022-08-21T11:41:09.794Z,100486.41
2022-08-21T11:43:44.996Z,100481.84
2022-08-21T11:46:26.788Z,100477.50
2022-08-21T11:49:02.627Z,100472.22
2022-08-21T11:51:40.098Z,100468.16
2022-08-21T11:54:47.023Z,100472.41
2022-08-21T11:57:51.799Z,100467.00
2022-08-21T12:00:34.159Z,100462.09
2022-08-21T12:03:14.649Z,100451.22
2022-08-21T12:05:45.158Z,100451.47
2022-08-21T12:08:27.651Z,100451.03
2022-08-21T12:11:17.970Z,100455.50
2022-08-21T12:13:58.637Z,100454.25
2022-08-21T12:16:43.400Z,100458.13
2022-08-21T12:19:14.430Z,100454.34
2022-08-21T12:21:52.825Z,100445.72
2022-08-21T12:24:34.182Z,100452.84
2022-08-21T12:27:45.201Z,100453.47
2022-08-21T12:30:36.527Z,100456.34
2022-08-21T12:33:20.862Z,100450.72
2022-08-21T12:35:50.531Z,100451.06
2022-08-21T12:38:27.383Z,100442.53
2022-08-21T12:41:21.098Z,100449.63
2022-08-21T12:43:52.542Z,100437.94
2022-08-21T12:46:23.032Z,100429.47
2022-08-21T12:48:55.702Z,100422.03
2022-08-21T12:51:35.298Z,100428.50
2022-08-21T12:54:02.144Z,100432.50
2022-08-21T12:56:32.339Z,100427.88
2022-08-21T12:59:07.606Z,100429.88
2022-08-21T13:01:56.041Z,100433.16
2022-08-21T13:04:33.207Z,100424.66
2022-08-21T13:07:01.115Z,100428.97
2022-08-21T13:09:30.501Z,100424.84
2022-08-21T13:11:58.506Z,100426.16
2022-08-21T13:14:45.945Z,100419.34
2022-08-21T13:17:25.760Z,100412.94
2022-08-21T13:20:02.094Z,100411.28
2022-08-21T13:22:35.005Z,100413.84
2022-08-21T13:25:07.059Z,100414.06
2022-08-21T13:27:35.234Z,100402.75
2022-08-21T13:30:21.121Z,100403.78
2022-08-21T13:32:52.021Z,100397.91
2022-08-21T13:35:23.282Z,100402.97
2022-08-21T13:37:52.829Z,100406.53
2022-08-21T13:40:40.943Z,100407.66
2022-08-21T13:43:14.296Z,100400.16
2022-08-21T13:45:49.888Z,100401.56
2022-08-21T13:48:17.042Z,100402.97
2022-08-21T13:50:44.694Z,100398.88
2022-08-21T13:53:45.666Z,100398.56
2022-08-21T13:56:27.926Z,100397.97
2022-08-21T13:58:56.871Z,100391.19
2022-08-21T14:01:28.780Z,100395.34
2022-08-21T14:04:19.004Z,100387.88
2022-08-21T14:06:46.626Z,100392.59
2022-08-21T14:09:43.772Z,100391.38
2022-08-21T14:12:24.639Z,100383.28
2022-08-21T14:14:52.627Z,100379.25
2022-08-21T14:17:34.884Z,100381.00
2022-08-21T14:20:04.117Z,100387.31
2022-08-21T14:22:44.518Z,100381.56
2022-08-21T14:25:20.214Z,100367.84
2022-08-21T14:27:53.695Z,100365.97
2022-08-21T14:30:30.870Z,100363.69
2022-08-21T14:32:58.291Z,100359.13
2022-08-21T14:35:25.329Z,100363.41
2022-08-21T14:37:53.908Z,100355.25
2022-08-21T14:40:23.438Z,100347.19
2022-08-21T14:42:50.811Z,100343.28
2022-08-21T14:45:24.918Z,100342.81
2022-08-21T14:47:55.903Z,100346.38
2022-08-21T14:50:22.869Z,100345.81
2022-08-21T14:52:50.425Z,100343.22
2022-08-21T14:55:19.039Z,100342.88
2022-08-21T14:57:48.241Z,100348.41
2022-08-21T15:00:18.561Z,100337.38
2022-08-21T15:02:45.631Z,100339.50
2022-08-21T15:05:15.425Z,100343.75
2022-08-21T15:07:51.890Z,100351.66
2022-08-21T15:10:18.690Z,100342.47
2022-08-21T15:12:45.450Z,100332.41
2022-08-21T15:15:12.521Z,100343.31
2022-08-21T15:17:48.187Z,100350.28
2022-08-21T15:20:15.917Z,100344.31
2022-08-21T15:22:47.729Z,100344.06
2022-08-21T15:25:15.004Z,100347.50
2022-08-21T15:27:41.731Z,100343.41
2022-08-21T15:30:08.856Z,100337.53
2022-08-21T15:32:35.480Z,100337.38
2022-08-21T15:35:03.175Z,100328.41
2022-08-21T15:37:30.486Z,100337.06
2022-08-21T15:39:57.422Z,100324.66
2022-08-21T15:42:27.556Z,100326.25
2022-08-21T15:44:55.617Z,100321.00
2022-08-21T15:47:26.145Z,100319.41
2022-08-21T15:49:52.790Z,100321.78
2022-08-21T15:52:21.724Z,100316.41
2022-08-21T15:54:49.110Z,100317.03
2022-08-21T15:57:19.808Z,100314.38
2022-08-21T15:59:50.127Z,100305.63
2022-08-21T16:02:29.978Z,100314.34
2022-08-21T16:04:57.993Z,100314.50
2022-08-21T16:07:24.901Z,100311.44
2022-08-21T16:09:51.645Z,100320.19
2022-08-21T16:12:24.426Z,100315.22
2022-08-21T16:14:53.231Z,100317.88
2022-08-21T16:17:21.853Z,100312.34
2022-08-21T16:19:48.605Z,100305.44
2022-08-21T16:22:15.237Z,100306.91
2022-08-21T16:24:41.934Z,100298.16
2022-08-21T16:27:09.184Z,100298.59
2022-08-21T16:29:37.715Z,100293.69
2022-08-21T16:32:07.921Z,100296.78
2022-08-21T16:34:35.697Z,100300.34
2022-08-21T16:37:02.498Z,100296.56
2022-08-21T16:39:29.370Z,100291.81
2022-08-21T16:41:56.209Z,100293.22
2022-08-21T16:44:23.142Z,100286.38
2022-08-21T16:46:50.197Z,100285.09
2022-08-21T16:49:17.215Z,100287.47
2022-08-21T16:51:43.993Z,100277.88
2022-08-21T16:54:12.016Z,100283.63
2022-08-21T16:56:42.054Z,100280.78
2022-08-21T16:59:12.604Z,100276.59
2022-08-21T17:01:39.746Z,100273.75
2022-08-21T17:04:06.612Z,100271.84
2022-08-21T17:06:33.620Z,100278.47
2022-08-21T17:09:04.181Z,100281.97
2022-08-21T17:11:38.495Z,100275.50
2022-08-21T17:14:09.308Z,100265.38
2022-08-21T17:16:37.412Z,100271.81
2022-08-21T17:19:04.697Z,100264.38
2022-08-21T17:21:31.611Z,100269.59
2022-08-21T17:23:58.547Z,100269.72
2022-08-21T17:26:25.976Z,100278.09
2022-08-21T17:28:54.857Z,100268.19
2022-08-21T17:31:22.125Z,100268.78
2022-08-21T17:33:52.854Z,100278.75
2022-08-21T17:36:22.297Z,100275.63
2022-08-21T17:38:49.508Z,100263.97
2022-08-21T17:41:17.400Z,100270.22
2022-08-21T17:43:44.329Z,100264.59
2022-08-21T17:46:17.102Z,100262.94
2022-08-21T17:48:47.271Z,100261.41
2022-08-21T17:51:15.085Z,100266.03
2022-08-21T17:53:42.001Z,100262.03
2022-08-21T17:56:08.915Z,100267.19
2022-08-21T17:58:37.005Z,100269.78
2022-08-21T18:01:05.690Z,100267.28
2022-08-21T18:03:38.499Z,100268.34
2022-08-21T18:06:06.473Z,100270.66
2022-08-21T18:08:34.061Z,100271.41
2022-08-21T18:11:01.253Z,100268.25
2022-08-21T18:13:32.987Z,100269.88
2022-08-21T18:16:00.279Z,100266.22
2022-08-21T18:18:32.601Z,100270.94
2022-08-21T18:20:59.326Z,100277.06
2022-08-21T18:23:43.442Z,100270.69
2022-08-21T18:26:11.048Z,100279.03
2022-08-21T18:28:38.494Z,100280.56
2022-08-21T18:31:09.480Z,100275.31
2022-08-21T18:33:37.821Z,100279.75
2022-08-21T18:36:05.230Z,100286.44
2022-08-21T18:38:31.894Z,100286.59
2022-08-21T18:40:59.668Z,100289.59
2022-08-21T18:43:26.944Z,100289.25
2022-08-21T18:45:54.168Z,100283.28
2022-08-21T18:48:21.052Z,100292.81
2022-08-21T18:50:53.860Z,100296.72
2022-08-21T18:53:27.434Z,100302.16
2022-08-21T18:55:57.054Z,100296.63
2022-08-21T18:58:31.629Z,100299.41
2022-08-21T19:01:00.157Z,100305.34
2022-08-21T19:03:27.068Z,100305.34
2022-08-21T19:05:54.137Z,100302.84
2022-08-21T19:08:22.979Z,100309.84
2022-08-21T19:10:52.572Z,100314.66
2022-08-21T19:13:21.286Z,100303.53
2022-08-21T19:15:52.650Z,100302.19
2022-08-21T19:18:28.322Z,100303.22
2022-08-21T19:21:08.269Z,100298.88
2022-08-21T19:23:35.546Z,100303.41
2022-08-21T19:26:06.016Z,100305.09
2022-08-21T19:28:38.621Z,100302.19
2022-08-21T19:31:19.748Z,100307.47
2022-08-21T19:33:58.970Z,100306.84
2022-08-21T19:36:29.970Z,100310.06
2022-08-21T19:38:56.869Z,100307.00
2022-08-21T19:41:27.339Z,100317.34
2022-08-21T19:43:57.844Z,100317.16
2022-08-21T19:46:28.903Z,100310.06
2022-08-21T19:48:57.080Z,100312.91
2022-08-21T19:51:24.424Z,100320.16
2022-08-21T19:53:55.822Z,100313.38
2022-08-21T19:56:27.017Z,100317.63
2022-08-21T19:58:55.698Z,100306.66
2022-08-21T20:01:25.612Z,100314.94
2022-08-21T20:03:54.159Z,100304.47
2022-08-21T20:06:41.108Z,100321.22
2022-08-21T20:09:10.406Z,100316.75
2022-08-21T20:11:47.656Z,100310.56
2022-08-21T20:14:17.576Z,100322.16
2022-08-21T20:16:46.214Z,100323.78
2022-08-21T20:19:13.164Z,100320.09
2022-08-21T20:21:43.826Z,100321.47
2022-08-21T20:24:14.654Z,100322.41
2022-08-21T20:27:01.788Z,100318.72
2022-08-21T20:29:34.934Z,100328.38
2022-08-21T20:32:05.682Z,100323.66
2022-08-21T20:34:33.180Z,100318.06
2022-08-21T20:37:01.166Z,100317.13
2022-08-21T20:39:28.272Z,100327.22
2022-08-21T20:41:55.538Z,100328.03
2022-08-21T20:44:22.561Z,100321.38
2022-08-21T20:46:54.493Z,100329.97
2022-08-21T20:49:27.793Z,100318.28
2022-08-21T20:51:57.188Z,100322.38
2022-08-21T20:54:41.994Z,100320.66
2022-08-21T20:57:13.595Z,100322.28
2022-08-21T21:00:01.790Z,100322.38
2022-08-21T21:02:43.443Z,100321.81
2022-08-21T21:05:33.155Z,100322.41
2022-08-21T21:08:03.249Z,100324.47
2022-08-21T21:10:41.380Z,100329.38
2022-08-21T21:13:38.571Z,100319.50
2022-08-21T21:16:15.827Z,100323.72
2022-08-21T21:24:51.200Z,100334.84
2022-08-21T21:27:29.526Z,100339.31
2022-08-21T21:30:14.729Z,100345.50
2022-08-21T21:32:42.781Z,100340.06
2022-08-21T21:35:14.461Z,100345.19
2022-08-21T21:37:58.604Z,100347.25
2022-08-21T21:40:32.993Z,100346.88
2022-08-21T21:43:00.475Z,100341.84
2022-08-21T21:45:56.592Z,100347.72
2022-08-21T21:48:37.675Z,100345.22
2022-08-21T21:51:18.727Z,100340.41
2022-08-21T21:53:58.521Z,100350.97
2022-08-21T21:57:06.611Z,100341.22
2022-08-21T21:59:40.237Z,100336.50
2022-08-21T22:02:16.705Z,100344.72
2022-08-21T22:05:04.444Z,100338.97
2022-08-21T22:07:45.554Z,100339.34
2022-08-21T22:10:19.743Z,100339.91
2022-08-21T22:13:11.026Z,100334.81
2022-08-21T22:15:38.209Z,100341.16
2022-08-21T22:18:16.790Z,100339.91
2022-08-21T22:20:52.913Z,100340.25
2022-08-21T22:23:30.099Z,100343.72
2022-08-21T22:26:04.485Z,100343.13
2022-08-21T22:28:35.418Z,100347.41
2022-08-21T22:31:22.382Z,100331.03
2022-08-21T22:34:06.327Z,100337.78
2022-08-21T22:36:37.164Z,100336.44
2022-08-21T22:39:11.860Z,100351.91
2022-08-21T22:41:43.476Z,100352.91
2022-08-21T22:44:23.708Z,100358.22
2022-08-21T22:47:00.893Z,100354.19
2022-08-21T22:49:41.946Z,100359.47
2022-08-21T22:52:24.424Z,100360.28
2022-08-21T22:54:54.233Z,100354.31
2022-08-21T22:57:32.164Z,100359.97
2022-08-21T23:00:01.543Z,100362.72
2022-08-21T23:02:38.931Z,100360.72
2022-08-21T23:05:31.300Z,100366.28
2022-08-21T23:08:34.270Z,100364.38
2022-08-21T23:11:15.957Z,100365.53
2022-08-21T23:13:46.289Z,100359.22
2022-08-21T23:16:37.758Z,100358.94
2022-08-21T23:19:34.450Z,100359.16
2022-08-21T23:22:09.480Z,100359.19
2022-08-21T23:24:49.826Z,100360.72
2022-08-21T23:27:35.777Z,100358.94
2022-08-21T23:30:12.297Z,100352.53
2022-08-21T23:33:01.289Z,100359.44
2022-08-21T23:36:04.109Z,100356.53
2022-08-21T23:38:45.441Z,100362.09
2022-08-21T23:41:56.802Z,100356.94
2022-08-21T23:44:51.900Z,100361.47
2022-08-21T23:47:27.287Z,100362.91
2022-08-21T23:50:14.249Z,100364.69
2022-08-21T23:53:09.031Z,100361.19
2022-08-21T23:55:43.696Z,100365.38
2022-08-21T23:58:30.862Z,100365.31
